Time;durP1;ratioP1;P1;durP2;ratioP2;P2;SDS_P1;SDS_P2;PMS_P1;PMS_P2;Temp;Humidity;BMP_temperature;BMP_pressure;BME280_temperature;BME280_humidity;BME280_pressure;Samples;Min_cycle;Max_cycle;Signal;HPM_P1;HPM_P2
2021/09/10 07:53:46;;;;;;;4.13;2.45;;;23.30;99.90;;;;;;6271174;22;20191;-75
2021/09/10 07:56:13;;;;;;;5.35;3.17;;;23.30;99.90;;;;;;6276095;22;20639;-77
2021/09/10 07:58:40;;;;;;;4.03;2.63;;;23.40;99.90;;;;;;6275622;22;20202;-75
2021/09/10 08:01:07;;;;;;;4.90;2.15;;;23.30;99.90;;;;;;6276164;22;20175;-77
2021/09/10 08:03:34;;;;;;;3.22;2.38;;;23.20;99.90;;;;;;6275707;22;20181;-76
2021/09/10 08:06:01;;;;;;;3.90;2.58;;;23.20;99.90;;;;;;6275584;22;20206;-75
2021/09/10 08:08:28;;;;;;;5.32;2.25;;;23.30;99.90;;;;;;6275717;22;20178;-76
2021/09/10 08:10:56;;;;;;;4.55;2.53;;;23.30;99.90;;;;;;6277296;22;20174;-77
2021/09/10 08:13:22;;;;;;;5.38;2.28;;;23.10;99.90;;;;;;6277550;22;20485;-76
2021/09/10 08:15:49;;;;;;;5.20;2.40;;;23.10;99.90;;;;;;6277906;22;20197;-74
2021/09/10 08:18:16;;;;;;;5.13;2.78;;;23.00;99.90;;;;;;6277763;22;20181;-74
2021/09/10 08:20:44;;;;;;;3.95;2.30;;;23.00;99.90;;;;;;6277805;22;20257;-74
2021/09/10 08:23:11;;;;;;;4.55;2.38;;;22.90;99.90;;;;;;6277421;22;20332;-74
2021/09/10 08:25:37;;;;;;;3.47;2.40;;;23.00;99.90;;;;;;6277834;22;20214;-75
2021/09/10 08:28:06;;;;;;;5.43;2.78;;;23.00;99.90;;;;;;6277653;22;20481;-74
2021/09/10 08:30:33;;;;;;;5.85;2.70;;;23.00;99.90;;;;;;6277551;22;20205;-75
2021/09/10 08:32:59;;;;;;;5.72;2.85;;;22.90;99.90;;;;;;6277357;22;20175;-74
2021/09/10 08:35:26;;;;;;;4.65;2.83;;;22.70;99.90;;;;;;6277779;22;20185;-77
2021/09/10 08:37:54;;;;;;;4.57;2.50;;;22.60;99.90;;;;;;6277575;22;20179;-75
2021/09/10 08:40:20;;;;;;;3.83;2.75;;;22.50;99.90;;;;;;6277413;22;20277;-75
2021/09/10 08:42:47;;;;;;;6.65;2.88;;;22.60;99.90;;;;;;6277340;22;20181;-75
2021/09/10 08:45:19;;;;;;;5.43;2.90;;;22.90;99.90;;;;;;6277166;22;20694;-74
2021/09/10 08:47:46;;;;;;;5.75;2.95;;;23.00;99.90;;;;;;6272497;22;20179;-75
2021/09/10 08:50:13;;;;;;;7.65;3.35;;;23.00;99.90;;;;;;6275436;22;20232;-76
2021/09/10 08:52:40;;;;;;;5.85;2.72;;;23.10;99.90;;;;;;6276199;22;20195;-73
2021/09/10 08:55:08;;;;;;;5.32;3.10;;;23.00;99.90;;;;;;6275048;22;20632;-72
2021/09/10 08:57:36;;;;;;;5.45;3.40;;;23.00;99.90;;;;;;6276570;22;20185;-74
2021/09/10 09:00:08;;;;;;;5.10;3.15;;;22.90;99.90;;;;;;6278300;22;20203;-79
2021/09/10 09:02:36;;;;;;;5.45;2.90;;;22.90;99.90;;;;;;6276540;22;20178;-77
2021/09/10 09:05:04;;;;;;;6.80;3.20;;;22.80;99.90;;;;;;6275856;22;20221;-77
2021/09/10 09:07:30;;;;;;;4.78;3.17;;;22.90;99.90;;;;;;6275876;22;20261;-74
2021/09/10 09:09:58;;;;;;;4.97;3.10;;;22.90;99.90;;;;;;6275075;22;20574;-76
2021/09/10 09:12:28;;;;;;;6.05;3.50;;;22.90;99.90;;;;;;6276374;22;20202;-78
2021/09/10 09:14:56;;;;;;;7.97;3.65;;;22.80;99.90;;;;;;6276296;22;20178;-75
2021/09/10 09:17:27;;;;;;;8.43;3.53;;;22.80;99.90;;;;;;6275093;22;20179;-81
2021/09/10 09:20:18;;;;;;;5.10;3.58;;;22.80;99.90;;;;;;6275787;22;20195;-76
2021/09/10 09:22:59;;;;;;;8.50;4.45;;;22.70;99.90;;;;;;6274967;22;20210;-75
2021/09/10 09:25:28;;;;;;;7.07;4.40;;;22.60;99.90;;;;;;6274933;22;20294;-78
2021/09/10 09:27:55;;;;;;;8.25;4.22;;;22.50;99.90;;;;;;6275344;22;20181;-79
2021/09/10 09:30:38;;;;;;;6.55;4.47;;;22.40;99.90;;;;;;6277786;22;20286;-77
2021/09/10 09:33:05;;;;;;;8.55;4.38;;;22.30;99.90;;;;;;6277828;22;20210;-76
2021/09/10 09:35:34;;;;;;;5.95;3.90;;;22.10;99.90;;;;;;6276286;22;20189;-74
2021/09/10 09:38:11;;;;;;;8.93;4.10;;;22.00;99.90;;;;;;6275272;22;20721;-76
2021/09/10 09:40:39;;;;;;;4.95;3.50;;;21.90;99.90;;;;;;6275461;22;20174;-77
2021/09/10 09:43:13;;;;;;;9.00;4.70;;;21.90;99.90;;;;;;6274307;22;20262;-78
2021/09/10 09:45:40;;;;;;;7.35;3.95;;;21.70;99.90;;;;;;6274352;22;20634;-78
2021/09/10 09:48:10;;;;;;;5.80;4.05;;;21.60;99.90;;;;;;6275173;22;20651;-77
2021/09/10 09:50:39;;;;;;;8.32;4.15;;;21.60;99.90;;;;;;6276024;22;20198;-75
2021/09/10 09:53:07;;;;;;;5.88;4.38;;;21.50;99.90;;;;;;6274648;22;20190;-76
2021/09/10 09:55:35;;;;;;;7.65;4.32;;;21.40;99.90;;;;;;6275297;22;20265;-78
2021/09/10 09:58:04;;;;;;;6.50;4.72;;;21.40;99.90;;;;;;6275120;22;20621;-76
2021/09/10 10:00:32;;;;;;;8.70;4.43;;;21.40;99.90;;;;;;6274862;22;20199;-77
2021/09/10 10:03:01;;;;;;;7.65;4.40;;;21.30;99.90;;;;;;6275597;22;20179;-89
2021/09/10 10:05:29;;;;;;;7.28;4.20;;;21.30;99.90;;;;;;6275553;22;20203;-79
2021/09/10 10:08:02;;;;;;;7.35;4.22;;;21.40;99.90;;;;;;6275939;22;20182;-81
2021/09/10 10:10:33;;;;;;;8.88;5.18;;;21.40;99.90;;;;;;6277082;22;20537;-78
2021/09/10 10:13:02;;;;;;;6.93;4.10;;;21.40;99.90;;;;;;6276856;22;20178;-84
2021/09/10 10:15:30;;;;;;;8.02;4.35;;;21.30;99.90;;;;;;6276265;22;20217;-79
2021/09/10 10:17:58;;;;;;;6.95;4.25;;;21.20;99.90;;;;;;6277110;22;20174;-75
2021/09/10 10:20:58;;;;;;;6.50;4.03;;;21.20;99.90;;;;;;6276752;22;20278;-76
2021/09/10 10:23:53;;;;;;;7.85;4.55;;;21.10;99.90;;;;;;6123272;23;20193;-85
2021/09/10 10:26:31;;;;;;;7.05;4.45;;;21.20;99.90;;;;;;6123629;23;20218;-74
2021/09/10 10:29:06;;;;;;;9.65;4.97;;;21.20;99.90;;;;;;6230553;22;20195;-78
2021/09/10 10:32:04;;;;;;;7.43;4.40;;;21.30;99.90;;;;;;6276777;22;20174;-76
2021/09/10 10:34:32;;;;;;;6.55;3.95;;;21.10;99.90;;;;;;6262756;22;20545;-74
2021/09/10 10:36:59;;;;;;;9.50;4.85;;;21.00;99.90;;;;;;6276662;22;20179;-75
2021/09/10 10:39:32;;;;;;;6.60;4.03;;;21.00;99.90;;;;;;6276271;22;20195;-78
2021/09/10 10:42:03;;;;;;;5.22;3.60;;;21.00;99.90;;;;;;6276517;22;20174;-77
2021/09/10 10:44:49;;;;;;;5.95;3.80;;;20.80;99.90;;;;;;6276707;22;20528;-75
2021/09/10 10:47:20;;;;;;;5.00;2.97;;;20.80;99.90;;;;;;6276025;22;20210;-75
2021/09/10 10:49:48;;;;;;;5.75;3.13;;;20.90;99.90;;;;;;6276279;22;20206;-76
2021/09/10 10:52:55;;;;;;;5.13;3.08;;;21.00;99.90;;;;;;6275784;22;20182;-76
2021/09/10 10:55:25;;;;;;;4.95;2.42;;;20.90;99.90;;;;;;6275790;22;20182;-77
2021/09/10 10:57:53;;;;;;;5.30;2.60;;;20.80;99.90;;;;;;6275614;22;20178;-76
2021/09/10 11:00:46;;;;;;;7.20;2.85;;;20.80;99.90;;;;;;6274503;22;20205;-76
2021/09/10 11:03:38;;;;;;;3.22;1.95;;;20.80;99.90;;;;;;6275504;22;20185;-75
2021/09/10 11:06:27;;;;;;;3.58;2.08;;;20.80;99.90;;;;;;6276203;22;20206;-75
2021/09/10 11:08:55;;;;;;;3.70;2.35;;;20.90;99.90;;;;;;6276024;22;20206;-75
2021/09/10 11:11:27;;;;;;;3.75;1.90;;;20.90;99.90;;;;;;6276243;22;20175;-75
2021/09/10 11:13:54;;;;;;;2.33;1.90;;;20.90;99.90;;;;;;6276065;22;20179;-75
2021/09/10 11:16:29;;;;;;;2.90;2.17;;;20.80;99.90;;;;;;6276609;22;20182;-74
2021/09/10 11:18:57;;;;;;;3.38;2.05;;;20.80;99.90;;;;;;6276499;22;20234;-74
2021/09/10 11:21:31;;;;;;;2.33;1.90;;;20.90;99.90;;;;;;6276343;22;20175;-75
2021/09/10 11:24:09;;;;;;;4.65;2.10;;;20.90;99.90;;;;;;6276221;22;20547;-75
2021/09/10 11:26:38;;;;;;;2.53;1.73;;;20.90;99.90;;;;;;6276296;22;20213;-76
2021/09/10 11:29:09;;;;;;;2.58;1.73;;;20.90;99.90;;;;;;6276309;22;20195;-76
2021/09/10 11:31:36;;;;;;;2.80;2.00;;;20.90;99.90;;;;;;6276117;22;20175;-74
2021/09/10 11:34:03;;;;;;;3.20;1.83;;;21.00;99.90;;;;;;6275363;22;20179;-75
2021/09/10 11:36:30;;;;;;;4.47;2.28;;;21.10;99.90;;;;;;6275496;22;20613;-75
2021/09/10 11:39:01;;;;;;;3.00;1.98;;;21.20;99.90;;;;;;6275339;22;20201;-75
2021/09/10 11:41:27;;;;;;;3.35;2.35;;;21.30;99.90;;;;;;6276096;22;20217;-75
2021/09/10 11:44:04;;;;;;;3.53;2.15;;;21.50;99.90;;;;;;6275936;22;20175;-75
2021/09/10 11:46:31;;;;;;;2.35;1.83;;;21.60;99.90;;;;;;6278154;22;20206;-75
2021/09/10 11:48:59;;;;;;;3.38;2.03;;;21.70;99.90;;;;;;6278439;22;20195;-74
2021/09/10 11:51:44;;;;;;;3.38;1.92;;;21.80;99.90;;;;;;6278186;22;20210;-74
2021/09/10 11:54:14;;;;;;;5.32;2.30;;;21.90;99.90;;;;;;6277322;22;20239;-74
2021/09/10 11:56:41;;;;;;;3.67;2.20;;;21.90;99.90;;;;;;6278000;22;20225;-75
2021/09/10 11:59:29;;;;;;;2.83;2.15;;;22.10;99.90;;;;;;6277961;22;20194;-75
2021/09/10 12:01:56;;;;;;;2.55;1.63;;;22.30;99.90;;;;;;6277738;22;20289;-75
2021/09/10 12:04:31;;;;;;;3.70;1.98;;;22.40;99.90;;;;;;6277846;22;20550;-75
2021/09/10 12:07:00;;;;;;;3.10;1.60;;;22.80;99.90;;;;;;6277896;22;20241;-75
2021/09/10 12:09:28;;;;;;;2.70;1.90;;;23.10;99.90;;;;;;6277963;22;20229;-74
2021/09/10 12:12:07;;;;;;;2.53;1.77;;;23.10;99.90;;;;;;6277592;22;20740;-75
2021/09/10 12:14:38;;;;;;;2.85;1.83;;;23.30;99.90;;;;;;6277889;22;20277;-75
2021/09/10 12:17:18;;;;;;;2.85;1.92;;;23.80;99.90;;;;;;6278024;22;20182;-74
2021/09/10 12:20:04;;;;;;;4.78;2.25;;;23.90;99.90;;;;;;6278113;22;20194;-74
2021/09/10 12:22:59;;;;;;;3.80;1.70;;;23.80;99.90;;;;;;6278202;22;20178;-74
2021/09/10 12:25:46;;;;;;;3.45;1.95;;;23.50;99.90;;;;;;6277935;22;20266;-75
2021/09/10 12:28:21;;;;;;;4.15;1.70;;;23.40;99.90;;;;;;6277720;22;20299;-75
2021/09/10 12:30:55;;;;;;;1.83;1.60;;;23.50;99.90;;;;;;6277596;22;20174;-74
2021/09/10 12:33:24;;;;;;;6.35;2.00;;;23.60;99.90;;;;;;6277859;22;20543;-75
2021/09/10 12:35:52;;;;;;;2.67;1.92;;;23.70;99.90;;;;;;6277489;22;20630;-74
2021/09/10 12:38:21;;;;;;;3.00;1.95;;;23.80;99.90;;;;;;6277627;22;20175;-74
2021/09/10 12:40:50;;;;;;;2.75;2.10;;;23.80;99.90;;;;;;6277495;22;20179;-75
2021/09/10 12:43:18;;;;;;;3.13;1.80;;;24.00;99.90;;;;;;6277564;22;20179;-74
2021/09/10 12:45:45;;;;;;;2.63;1.90;;;24.20;99.90;;;;;;6277780;22;20175;-74
2021/09/10 12:48:14;;;;;;;3.15;2.03;;;24.10;99.90;;;;;;6277100;22;20203;-74
2021/09/10 12:50:42;;;;;;;4.60;2.10;;;24.10;99.90;;;;;;6277476;22;20199;-75
2021/09/10 12:53:09;;;;;;;5.10;2.20;;;24.10;99.90;;;;;;6277210;22;20189;-74
2021/09/10 12:55:36;;;;;;;2.38;1.60;;;23.90;99.90;;;;;;6277195;22;20175;-74
2021/09/10 12:58:03;;;;;;;4.97;2.30;;;23.90;99.90;;;;;;6277642;22;20201;-74
2021/09/10 13:00:30;;;;;;;3.67;2.30;;;23.80;99.90;;;;;;6277445;22;20217;-73
2021/09/10 13:02:57;;;;;;;2.72;1.95;;;24.00;99.90;;;;;;6277483;22;20179;-73
2021/09/10 13:05:25;;;;;;;5.00;2.30;;;24.20;99.90;;;;;;6276954;22;20178;-73
2021/09/10 13:07:52;;;;;;;2.83;2.10;;;24.10;99.90;;;;;;6277248;22;20207;-73
2021/09/10 13:10:19;;;;;;;4.50;1.98;;;24.30;99.90;;;;;;6277005;22;20281;-75
2021/09/10 13:12:46;;;;;;;2.40;1.80;;;24.80;99.90;;;;;;6276742;22;20206;-75
2021/09/10 13:15:13;;;;;;;3.30;2.38;;;25.10;99.90;;;;;;6277513;22;20175;-74
2021/09/10 13:17:41;;;;;;;2.97;2.10;;;25.10;99.90;;;;;;6277397;22;20181;-74
2021/09/10 13:20:09;;;;;;;2.72;2.15;;;25.20;99.90;;;;;;6277321;22;20195;-75
2021/09/10 13:22:38;;;;;;;4.20;2.00;;;25.20;99.90;;;;;;6277425;22;20189;-73
2021/09/10 13:25:06;;;;;;;3.60;2.30;;;25.40;99.90;;;;;;6277224;22;20497;-75
2021/09/10 13:27:33;;;;;;;3.95;2.10;;;25.40;99.90;;;;;;6277035;22;20202;-74
2021/09/10 13:30:00;;;;;;;2.17;1.95;;;25.30;99.90;;;;;;6276925;22;20199;-75
2021/09/10 13:32:27;;;;;;;5.20;1.70;;;25.20;99.90;;;;;;6277719;22;20181;-73
2021/09/10 13:34:54;;;;;;;2.42;1.80;;;25.00;99.90;;;;;;6277139;22;20629;-74
2021/09/10 13:37:21;;;;;;;1.95;1.60;;;25.00;99.90;;;;;;6277145;22;20197;-73
2021/09/10 13:39:49;;;;;;;1.85;1.33;;;24.90;99.90;;;;;;6277871;22;20274;-73
2021/09/10 13:42:16;;;;;;;2.25;1.58;;;24.90;99.90;;;;;;6277581;22;20175;-73
2021/09/10 13:44:43;;;;;;;1.90;1.60;;;25.00;99.90;;;;;;6277732;22;20261;-73
2021/09/10 13:47:10;;;;;;;2.45;1.63;;;24.90;99.90;;;;;;6277345;22;20289;-73
2021/09/10 13:49:37;;;;;;;2.15;1.20;;;24.90;99.90;;;;;;6278240;22;20195;-73
2021/09/10 13:52:04;;;;;;;1.90;1.30;;;25.10;99.90;;;;;;6277442;22;20175;-73
2021/09/10 13:54:31;;;;;;;2.80;1.63;;;25.20;99.90;;;;;;6276690;22;20188;-73
2021/09/10 13:57:00;;;;;;;2.03;1.38;;;25.00;99.90;;;;;;6277050;22;20197;-73
2021/09/10 13:59:28;;;;;;;1.25;1.10;;;25.00;99.90;;;;;;6277040;22;20198;-73
2021/09/10 14:01:55;;;;;;;2.97;1.80;;;24.90;99.90;;;;;;6277264;22;20179;-73
2021/09/10 14:04:21;;;;;;;1.75;1.10;;;24.90;99.90;;;;;;6277140;22;20175;-73
2021/09/10 14:06:48;;;;;;;4.72;1.80;;;24.90;99.90;;;;;;6277248;22;20198;-73
2021/09/10 14:09:15;;;;;;;2.97;1.65;;;24.90;99.90;;;;;;6276368;22;20218;-73
2021/09/10 14:11:42;;;;;;;2.28;1.38;;;24.80;99.90;;;;;;6276307;22;20209;-72
2021/09/10 14:14:10;;;;;;;1.60;1.15;;;24.70;99.90;;;;;;6276873;22;20175;-73
2021/09/10 14:16:37;;;;;;;2.63;1.60;;;24.70;99.90;;;;;;6277071;22;20179;-73
2021/09/10 14:19:04;;;;;;;2.15;1.55;;;24.80;99.90;;;;;;6276841;22;20229;-73
2021/09/10 14:21:31;;;;;;;1.98;1.40;;;24.80;99.90;;;;;;6276546;22;20262;-73
2021/09/10 14:23:58;;;;;;;2.58;1.50;;;24.70;99.90;;;;;;6276979;22;20175;-73
2021/09/10 14:26:25;;;;;;;4.05;1.70;;;24.70;99.90;;;;;;6277154;22;20182;-74
2021/09/10 14:28:51;;;;;;;2.75;1.65;;;24.70;99.90;;;;;;6276725;22;20296;-73
2021/09/10 14:31:20;;;;;;;2.17;1.17;;;24.60;99.90;;;;;;6276562;22;20613;-73
2021/09/10 14:33:47;;;;;;;1.67;1.27;;;24.30;99.90;;;;;;6276939;22;20181;-73
2021/09/10 14:36:14;;;;;;;2.15;1.20;;;24.00;99.90;;;;;;6276561;22;20633;-73
2021/09/10 14:38:40;;;;;;;1.30;1.00;;;23.80;99.90;;;;;;6276823;22;20301;-73
2021/09/10 14:41:08;;;;;;;1.65;1.10;;;23.40;99.90;;;;;;6276658;22;20263;-73
2021/09/10 14:43:35;;;;;;;1.15;0.77;;;23.20;99.90;;;;;;6276432;22;20261;-73
2021/09/10 14:46:02;;;;;;;1.55;0.82;;;22.90;99.90;;;;;;6276754;22;20257;-74
2021/09/10 14:48:30;;;;;;;2.38;0.85;;;22.50;99.90;;;;;;6276099;22;20206;-75
2021/09/10 14:50:57;;;;;;;4.03;1.17;;;22.10;99.90;;;;;;6276395;22;20442;-74
2021/09/10 14:53:24;;;;;;;1.35;0.93;;;21.80;99.90;;;;;;6276148;22;20182;-74
2021/09/10 14:55:51;;;;;;;1.45;0.88;;;21.50;99.90;;;;;;6276470;22;20175;-74
2021/09/10 14:58:17;;;;;;;3.47;1.35;;;21.40;99.90;;;;;;6276585;22;20174;-74
2021/09/10 15:00:44;;;;;;;1.48;0.82;;;21.20;99.90;;;;;;6276059;22;20648;-74
2021/09/10 15:03:13;;;;;;;2.33;1.00;;;21.30;99.90;;;;;;6276473;22;20234;-73
2021/09/10 15:05:42;;;;;;;0.70;0.70;;;21.10;99.90;;;;;;6276031;22;20185;-74
2021/09/10 15:08:08;;;;;;;2.65;1.02;;;21.00;99.90;;;;;;6276030;22;20212;-74
2021/09/10 15:10:37;;;;;;;2.72;1.10;;;21.10;99.90;;;;;;6276303;22;20195;-74
2021/09/10 15:13:05;;;;;;;1.98;0.95;;;21.30;99.90;;;;;;6276404;22;20181;-74
2021/09/10 15:15:32;;;;;;;3.67;1.10;;;21.20;99.90;;;;;;6276264;22;20548;-74
2021/09/10 15:17:59;;;;;;;1.42;0.95;;;21.10;99.90;;;;;;6276559;22;20175;-74
2021/09/10 15:20:26;;;;;;;1.58;1.10;;;21.10;99.90;;;;;;6278399;22;20491;-74
2021/09/10 15:22:54;;;;;;;2.10;1.13;;;21.20;99.90;;;;;;6278335;22;20178;-74
2021/09/10 15:25:21;;;;;;;1.90;1.08;;;21.20;99.90;;;;;;6278734;22;20262;-74
2021/09/10 15:27:48;;;;;;;1.60;1.08;;;21.40;99.90;;;;;;6278458;22;20289;-74
2021/09/10 15:30:15;;;;;;;2.15;1.30;;;21.60;99.90;;;;;;6278248;22;20201;-74
2021/09/10 15:32:42;;;;;;;2.85;1.30;;;21.80;99.90;;;;;;6278475;22;20229;-74
2021/09/10 15:35:09;;;;;;;2.47;1.20;;;21.90;99.90;;;;;;6278650;22;20178;-74
2021/09/10 15:37:36;;;;;;;3.47;1.38;;;22.00;99.90;;;;;;6278580;22;20174;-74
2021/09/10 15:40:05;;;;;;;2.33;1.38;;;21.90;99.90;;;;;;6277761;22;20517;-74
2021/09/10 15:42:32;;;;;;;1.40;1.20;;;22.00;99.90;;;;;;6278279;22;20181;-73
2021/09/10 15:44:58;;;;;;;1.58;1.45;;;22.00;99.90;;;;;;6277998;22;20174;-73
2021/09/10 15:47:25;;;;;;;2.33;1.60;;;22.10;99.90;;;;;;6277840;22;20209;-73
2021/09/10 15:49:52;;;;;;;2.17;1.27;;;22.10;99.90;;;;;;6277986;22;20275;-74
2021/09/10 15:52:19;;;;;;;3.28;1.23;;;22.20;99.90;;;;;;6278019;22;20179;-74
2021/09/10 15:54:46;;;;;;;1.50;1.40;;;22.20;99.90;;;;;;6277918;22;20252;-73
2021/09/10 15:57:14;;;;;;;2.60;1.55;;;22.10;99.90;;;;;;6277955;22;20174;-73
2021/09/10 15:59:42;;;;;;;1.90;1.60;;;22.20;99.90;;;;;;6278350;22;20253;-73
2021/09/10 16:02:09;;;;;;;2.42;1.52;;;22.20;99.90;;;;;;6278113;22;20185;-73
2021/09/10 16:04:35;;;;;;;3.72;1.80;;;22.30;99.90;;;;;;6278124;22;20175;-73
2021/09/10 16:07:03;;;;;;;2.35;1.52;;;22.40;99.90;;;;;;6278183;22;20197;-73
2021/09/10 16:09:31;;;;;;;1.77;1.45;;;22.50;99.90;;;;;;6277485;22;20195;-74
2021/09/10 16:11:58;;;;;;;3.40;1.70;;;22.60;99.90;;;;;;6277298;22;20634;-73
2021/09/10 16:14:27;;;;;;;7.88;1.75;;;22.70;99.90;;;;;;6277926;22;20625;-73
2021/09/10 16:16:54;;;;;;;3.40;1.90;;;22.70;99.90;;;;;;6278374;22;20181;-73
2021/09/10 16:19:20;;;;;;;5.85;2.00;;;22.80;99.90;;;;;;6277911;22;20278;-73
2021/09/10 16:21:47;;;;;;;2.40;1.75;;;23.00;99.90;;;;;;6278056;22;20185;-73
2021/09/10 16:24:14;;;;;;;4.45;2.42;;;23.00;99.90;;;;;;6278052;22;20174;-73
2021/09/10 16:26:41;;;;;;;3.28;2.05;;;22.90;99.90;;;;;;6278155;22;20175;-73
2021/09/10 16:29:08;;;;;;;3.00;1.88;;;23.00;99.90;;;;;;6277755;22;20289;-73
2021/09/10 16:31:36;;;;;;;3.15;1.85;;;23.00;99.90;;;;;;6277342;22;20197;-73
2021/09/10 16:34:03;;;;;;;4.63;1.80;;;23.20;99.90;;;;;;6278028;22;20175;-73
2021/09/10 16:36:30;;;;;;;4.18;1.80;;;23.20;99.90;;;;;;6277374;22;20178;-73
2021/09/10 16:39:03;;;;;;;2.88;1.73;;;23.20;99.90;;;;;;6277615;22;20205;-73
2021/09/10 16:41:30;;;;;;;2.30;1.65;;;23.10;99.90;;;;;;6278010;22;20217;-73
2021/09/10 16:43:57;;;;;;;3.38;1.80;;;23.10;99.90;;;;;;6277332;22;20629;-73
2021/09/10 16:46:24;;;;;;;5.00;2.58;;;23.10;99.90;;;;;;6277765;22;20175;-73
2021/09/10 16:48:53;;;;;;;12.75;5.85;;;23.10;99.90;;;;;;6276995;22;20249;-73
2021/09/10 16:51:19;;;;;;;5.90;2.88;;;23.10;99.90;;;;;;6276903;22;20175;-73
2021/09/10 16:53:46;;;;;;;2.53;1.98;;;23.10;99.90;;;;;;6276493;22;20698;-73
2021/09/10 16:56:13;;;;;;;3.67;1.98;;;23.10;99.90;;;;;;6277088;22;20175;-73
2021/09/10 16:58:40;;;;;;;2.70;2.08;;;23.00;99.90;;;;;;6277174;22;20217;-74
2021/09/10 17:01:08;;;;;;;3.08;2.03;;;22.90;99.90;;;;;;6277390;22;20205;-73
2021/09/10 17:03:35;;;;;;;4.30;2.47;;;22.70;99.90;;;;;;6277320;22;20229;-73
2021/09/10 17:06:03;;;;;;;4.78;2.78;;;22.60;99.90;;;;;;6277087;22;20174;-73
2021/09/10 17:08:30;;;;;;;3.33;2.22;;;22.50;99.90;;;;;;6276850;22;20213;-73
2021/09/10 17:10:57;;;;;;;3.45;2.30;;;22.40;99.90;;;;;;6277006;22;20261;-74
2021/09/10 17:13:24;;;;;;;3.90;2.28;;;22.30;99.90;;;;;;6277087;22;20179;-74
2021/09/10 17:15:51;;;;;;;2.83;2.17;;;22.30;99.90;;;;;;6277575;22;20261;-74
2021/09/10 17:18:18;;;;;;;3.53;2.42;;;22.30;99.90;;;;;;6276948;22;20367;-74
2021/09/10 17:20:46;;;;;;;2.95;2.10;;;22.20;99.90;;;;;;6276731;22;20185;-74
2021/09/10 17:23:15;;;;;;;5.05;2.38;;;22.10;99.90;;;;;;6276926;22;20197;-74
2021/09/10 17:25:41;;;;;;;2.67;2.00;;;22.10;99.90;;;;;;6276727;22;20179;-74
2021/09/10 17:28:08;;;;;;;5.05;2.30;;;22.10;99.90;;;;;;6276789;22;20220;-74
2021/09/10 17:30:35;;;;;;;4.18;2.35;;;22.00;99.90;;;;;;6277272;22;20195;-74
2021/09/10 17:33:02;;;;;;;2.80;2.20;;;21.90;99.90;;;;;;6277574;22;20174;-74
2021/09/10 17:35:29;;;;;;;4.78;2.17;;;21.80;99.90;;;;;;6277408;22;20174;-74
2021/09/10 17:37:56;;;;;;;4.05;2.88;;;21.80;99.90;;;;;;6276974;22;20182;-74
2021/09/10 17:40:25;;;;;;;5.45;2.80;;;21.80;99.90;;;;;;6276471;22;20217;-74
2021/09/10 17:42:52;;;;;;;5.82;3.40;;;21.90;99.90;;;;;;6275940;22;20637;-74
2021/09/10 17:45:19;;;;;;;4.32;2.78;;;21.80;99.90;;;;;;6276489;22;20667;-74
2021/09/10 17:47:45;;;;;;;4.93;2.90;;;21.80;99.90;;;;;;6276554;22;20181;-74
2021/09/10 17:50:13;;;;;;;6.30;2.88;;;21.70;99.90;;;;;;6276841;22;20277;-74
2021/09/10 17:52:40;;;;;;;5.55;2.80;;;21.70;99.90;;;;;;6276828;22;20187;-74
2021/09/10 17:55:08;;;;;;;8.00;3.10;;;21.60;99.90;;;;;;6276461;22;20211;-74
2021/09/10 17:57:37;;;;;;;4.10;2.63;;;21.60;99.90;;;;;;6277150;22;20175;-74
2021/09/10 18:00:06;;;;;;;3.78;3.08;;;21.60;99.90;;;;;;6276408;22;20205;-74
2021/09/10 18:02:34;;;;;;;4.40;2.50;;;21.60;99.90;;;;;;6276825;22;20175;-74
2021/09/10 18:05:01;;;;;;;4.20;2.40;;;21.70;99.90;;;;;;6276426;22;20262;-74
2021/09/10 18:07:28;;;;;;;3.97;2.30;;;21.60;99.90;;;;;;6276654;22;20174;-75
2021/09/10 18:09:55;;;;;;;5.05;2.85;;;21.50;99.90;;;;;;6276382;22;20217;-75
2021/09/10 18:12:22;;;;;;;5.28;2.60;;;21.50;99.90;;;;;;6276489;22;20175;-74
2021/09/10 18:14:51;;;;;;;2.70;2.10;;;21.40;99.90;;;;;;6277077;22;20225;-75
2021/09/10 18:17:18;;;;;;;3.50;2.17;;;21.40;99.90;;;;;;6276864;22;20175;-75
2021/09/10 18:19:45;;;;;;;3.30;2.40;;;21.30;99.90;;;;;;6276534;22;20217;-74
2021/09/10 18:22:12;;;;;;;2.83;2.13;;;21.20;99.90;;;;;;6276043;22;20179;-75
2021/09/10 18:24:39;;;;;;;3.60;1.80;;;21.20;99.90;;;;;;6276062;22;20189;-75
2021/09/10 18:27:05;;;;;;;1.98;1.75;;;21.00;99.90;;;;;;6276611;22;20547;-75
2021/09/10 18:29:32;;;;;;;1.77;1.63;;;21.00;99.90;;;;;;6276097;22;20210;-74
2021/09/10 18:32:00;;;;;;;3.10;1.92;;;20.90;99.90;;;;;;6275857;22;20181;-74
2021/09/10 18:34:29;;;;;;;3.72;2.13;;;20.80;99.90;;;;;;6276601;22;20181;-74
2021/09/10 18:36:55;;;;;;;2.58;1.80;;;20.70;99.90;;;;;;6276635;22;20175;-73
2021/09/10 18:39:22;;;;;;;2.28;1.70;;;20.60;99.90;;;;;;6276532;22;20195;-73
2021/09/10 18:41:49;;;;;;;4.20;1.65;;;20.60;99.90;;;;;;6276947;22;20178;-73
2021/09/10 18:44:16;;;;;;;2.08;1.65;;;20.50;99.90;;;;;;6276351;22;20633;-73
2021/09/10 18:46:43;;;;;;;1.88;1.40;;;20.40;99.90;;;;;;6276797;22;20210;-73
2021/09/10 18:49:13;;;;;;;2.05;1.75;;;20.20;99.90;;;;;;6277271;22;20265;-74
2021/09/10 18:51:40;;;;;;;2.72;1.73;;;20.20;99.90;;;;;;6276277;22;20179;-73
2021/09/10 18:54:06;;;;;;;1.92;1.25;;;20.30;99.90;;;;;;6275883;22;20182;-73
2021/09/10 18:56:33;;;;;;;1.92;1.67;;;20.30;99.90;;;;;;6276836;22;20261;-74
2021/09/10 18:59:00;;;;;;;1.90;1.52;;;20.30;99.90;;;;;;6276046;22;20198;-74
2021/09/10 19:01:27;;;;;;;2.03;1.48;;;20.20;99.90;;;;;;6276264;22;20182;-74
2021/09/10 19:03:53;;;;;;;1.48;1.30;;;20.20;99.90;;;;;;6276160;22;20178;-74
2021/09/10 19:06:22;;;;;;;2.50;1.55;;;20.30;99.90;;;;;;6276166;22;20655;-74
2021/09/10 19:08:49;;;;;;;2.60;1.67;;;20.30;99.90;;;;;;6276470;22;20479;-74
2021/09/10 19:11:16;;;;;;;3.78;1.42;;;20.30;99.90;;;;;;6276919;22;20175;-74
2021/09/10 19:13:43;;;;;;;1.63;1.27;;;20.10;99.90;;;;;;6276625;22;20185;-74
2021/09/10 19:16:10;;;;;;;1.58;1.27;;;20.10;99.90;;;;;;6276829;22;20183;-73
2021/09/10 19:18:36;;;;;;;2.90;1.48;;;20.10;99.90;;;;;;6276336;22;20203;-74
2021/09/10 19:21:04;;;;;;;2.15;1.63;;;20.20;99.90;;;;;;6276576;22;20175;-74
2021/09/10 19:23:32;;;;;;;2.10;1.60;;;20.20;99.90;;;;;;6275965;22;20630;-74
2021/09/10 19:25:59;;;;;;;2.40;2.00;;;20.30;99.90;;;;;;6276622;22;20178;-74
2021/09/10 19:28:26;;;;;;;1.73;1.40;;;20.30;99.90;;;;;;6275781;22;20672;-74
2021/09/10 19:30:54;;;;;;;1.92;1.60;;;20.30;99.90;;;;;;6276330;22;20178;-74
2021/09/10 19:33:21;;;;;;;2.05;1.40;;;20.30;99.90;;;;;;6276666;22;20181;-74
2021/09/10 19:35:47;;;;;;;2.35;1.25;;;20.30;99.90;;;;;;6275749;22;20648;-74
2021/09/10 19:38:15;;;;;;;6.38;1.67;;;20.30;99.90;;;;;;6276061;22;20178;-74
2021/09/10 19:40:43;;;;;;;3.78;1.40;;;20.20;99.90;;;;;;6276058;22;20183;-74
2021/09/10 19:43:10;;;;;;;2.15;1.73;;;20.20;99.90;;;;;;6276612;22;20174;-73
2021/09/10 19:45:38;;;;;;;4.07;1.70;;;20.30;99.90;;;;;;6275846;22;20181;-73
2021/09/10 19:48:07;;;;;;;3.38;1.38;;;20.30;99.90;;;;;;6276426;22;20209;-73
2021/09/10 19:50:34;;;;;;;4.25;1.33;;;20.30;99.90;;;;;;6276847;22;20211;-73
2021/09/10 19:53:01;;;;;;;4.18;1.67;;;20.40;99.90;;;;;;6275657;22;20193;-73
2021/09/10 19:55:28;;;;;;;3.00;1.20;;;20.40;99.90;;;;;;6276112;22;20181;-73
2021/09/10 19:57:56;;;;;;;2.80;1.50;;;20.20;99.90;;;;;;6276530;22;20174;-73
2021/09/10 20:00:23;;;;;;;2.63;1.55;;;20.20;99.90;;;;;;6275873;22;20199;-73
2021/09/10 20:02:50;;;;;;;3.28;1.58;;;20.10;99.90;;;;;;6276381;22;20179;-73
2021/09/10 20:05:17;;;;;;;2.90;1.95;;;20.10;99.90;;;;;;6276403;22;20175;-73
2021/09/10 20:07:44;;;;;;;2.97;1.70;;;20.10;99.90;;;;;;6278215;22;20175;-73
2021/09/10 20:10:12;;;;;;;4.25;1.88;;;20.10;99.90;;;;;;6277463;22;20289;-73
2021/09/10 20:12:38;;;;;;;3.10;1.95;;;20.10;99.90;;;;;;6277526;22;20185;-73
2021/09/10 20:15:08;;;;;;;2.38;2.00;;;20.10;99.90;;;;;;6278210;22;20181;-73
2021/09/10 20:17:35;;;;;;;3.90;2.10;;;19.90;99.90;;;;;;6277818;22;20254;-73
2021/09/10 20:20:03;;;;;;;6.05;2.00;;;19.80;99.90;;;;;;6277720;22;20194;-73
2021/09/10 20:22:30;;;;;;;3.65;2.00;;;19.80;99.90;;;;;;6277923;22;20182;-73
2021/09/10 20:24:56;;;;;;;5.40;2.05;;;19.80;99.90;;;;;;6277330;22;20175;-74
2021/09/10 20:27:23;;;;;;;3.42;2.03;;;19.80;99.90;;;;;;6277607;22;20630;-73
2021/09/10 20:29:50;;;;;;;4.53;2.33;;;19.80;99.90;;;;;;6277810;22;20220;-74
2021/09/10 20:32:18;;;;;;;3.95;2.80;;;19.80;99.90;;;;;;6278151;22;20175;-74
2021/09/10 20:34:45;;;;;;;2.95;2.30;;;19.70;99.90;;;;;;6277708;22;20650;-73
2021/09/10 20:37:12;;;;;;;4.35;2.10;;;19.60;99.90;;;;;;6277648;22;20174;-74
2021/09/10 20:39:39;;;;;;;4.15;2.55;;;19.60;99.90;;;;;;6277894;22;20279;-73
2021/09/10 20:42:08;;;;;;;3.85;2.63;;;19.60;99.90;;;;;;6277923;22;20197;-73
2021/09/10 20:44:35;;;;;;;4.10;2.60;;;19.50;99.90;;;;;;6277717;22;20181;-73
2021/09/10 20:47:01;;;;;;;5.57;2.75;;;19.60;99.90;;;;;;6277485;22;20182;-73
2021/09/10 20:49:30;;;;;;;3.17;2.40;;;19.60;99.90;;;;;;6277600;22;20298;-73